createdAt,value
2018-04-13T00:00:27.248Z,5.47
2018-04-13T00:02:54.797Z,4.73
2018-04-13T00:05:38.854Z,4.33
2018-04-13T00:08:06.399Z,4.60
2018-04-13T00:10:33.954Z,4.13
2018-04-13T00:13:01.525Z,3.53
2018-04-13T00:15:29.092Z,3.90
2018-04-13T00:17:56.638Z,4.37
2018-04-13T00:20:24.186Z,4.60
2018-04-13T00:22:51.763Z,3.10
2018-04-13T00:25:19.315Z,6.53
2018-04-13T00:27:46.879Z,3.90
2018-04-13T00:30:14.429Z,12.90
2018-04-13T00:32:41.958Z,9.53
2018-04-13T00:35:09.505Z,4.47
2018-04-13T00:37:37.029Z,4.90
2018-04-13T00:40:04.601Z,3.90
2018-04-13T00:42:32.147Z,3.10
2018-04-13T00:44:59.683Z,3.10
2018-04-13T00:47:27.224Z,2.40
2018-04-13T00:49:54.777Z,2.80
2018-04-13T00:52:22.297Z,2.80
2018-04-13T00:54:49.848Z,2.87
2018-04-13T00:57:17.381Z,3.50
2018-04-13T00:59:44.906Z,3.83
2018-04-13T01:02:12.464Z,3.03
2018-04-13T01:04:40.010Z,3.40
2018-04-13T01:07:07.566Z,3.97
2018-04-13T01:09:35.146Z,4.23
2018-04-13T01:12:02.685Z,4.03
2018-04-13T01:14:30.223Z,3.70
2018-04-13T01:16:57.767Z,3.53
2018-04-13T01:19:25.307Z,4.70
2018-04-13T01:21:52.861Z,4.53
2018-04-13T01:24:20.431Z,3.13
2018-04-13T01:26:47.965Z,3.47
2018-04-13T01:29:15.506Z,4.83
2018-04-13T01:31:43.056Z,4.50
2018-04-13T01:34:10.765Z,4.70
2018-04-13T01:36:38.317Z,4.27
2018-04-13T01:39:06.753Z,4.40
2018-04-13T01:41:34.282Z,4.50
2018-04-13T01:44:01.867Z,4.20
2018-04-13T01:46:29.381Z,4.67
2018-04-13T01:48:56.872Z,4.40
2018-04-13T01:51:24.356Z,3.80
2018-04-13T01:53:51.871Z,3.30
2018-04-13T01:56:19.344Z,4.13
2018-04-13T01:58:46.830Z,3.50
2018-04-13T02:01:14.309Z,3.63
2018-04-13T02:03:42.150Z,3.43
2018-04-13T02:06:09.623Z,3.30
2018-04-13T02:08:37.173Z,4.00
2018-04-13T02:11:04.727Z,5.50
2018-04-13T02:13:32.294Z,3.43
2018-04-13T02:15:59.796Z,4.30
2018-04-13T02:18:27.403Z,3.47
2018-04-13T02:20:54.904Z,3.87
2018-04-13T02:23:22.403Z,3.90
2018-04-13T02:25:49.873Z,2.90
2018-04-13T02:28:17.343Z,3.67
2018-04-13T02:30:44.845Z,3.90
2018-04-13T02:33:12.352Z,3.83
2018-04-13T02:35:39.847Z,3.70
2018-04-13T02:38:07.328Z,3.40
2018-04-13T02:40:35.108Z,4.00
2018-04-13T02:43:03.048Z,4.03
2018-04-13T02:45:30.909Z,4.30
2018-04-13T02:47:58.444Z,5.20
2018-04-13T02:50:26.003Z,4.20
2018-04-13T02:52:53.596Z,4.40
2018-04-13T02:55:21.136Z,4.93
2018-04-13T02:57:48.668Z,3.67
2018-04-13T03:00:16.231Z,8.70
2018-04-13T03:02:43.747Z,4.20
2018-04-13T03:05:11.273Z,4.70
2018-04-13T03:07:38.912Z,4.87
2018-04-13T03:10:06.401Z,6.53
2018-04-13T03:12:33.940Z,7.10
2018-04-13T03:15:01.431Z,5.83
2018-04-13T03:17:28.910Z,7.80
2018-04-13T03:19:56.415Z,6.60
2018-04-13T03:22:23.884Z,4.80
2018-04-13T03:24:51.394Z,5.60
2018-04-13T03:27:18.943Z,5.30
2018-04-13T03:29:46.414Z,5.40
2018-04-13T03:32:13.891Z,5.53
2018-04-13T03:34:41.375Z,5.43
2018-04-13T03:37:08.847Z,4.70
2018-04-13T03:39:36.328Z,4.97
2018-04-13T03:42:03.862Z,5.20
2018-04-13T03:44:31.364Z,5.00
2018-04-13T03:46:58.832Z,6.40
2018-04-13T03:49:26.300Z,6.37
2018-04-13T03:51:53.789Z,6.57
2018-04-13T03:54:21.271Z,5.57
2018-04-13T03:56:48.821Z,5.60
2018-04-13T03:59:16.363Z,6.23
2018-04-13T04:01:43.846Z,6.90
2018-04-13T04:04:11.708Z,5.93
2018-04-13T04:06:39.183Z,7.30
2018-04-13T04:09:06.823Z,6.97
2018-04-13T04:11:34.331Z,7.80
2018-04-13T04:14:01.796Z,8.03
2018-04-13T04:16:29.312Z,6.57
2018-04-13T04:18:56.792Z,6.30
2018-04-13T04:21:35.962Z,7.10
2018-04-13T04:24:15.209Z,8.57
2018-04-13T04:26:48.195Z,8.47
2018-04-13T04:29:15.662Z,8.20
2018-04-13T04:31:43.156Z,7.33
2018-04-13T04:34:10.667Z,7.33
2018-04-13T04:36:38.155Z,8.20
2018-04-13T04:39:06.434Z,9.93
2018-04-13T04:41:33.944Z,10.87
2018-04-13T04:44:01.444Z,9.60
2018-04-13T04:46:28.970Z,13.07
2018-04-13T04:48:56.448Z,22.73
2018-04-13T04:51:23.987Z,18.20
2018-04-13T04:53:51.539Z,12.60
2018-04-13T04:56:19.052Z,12.73
2018-04-13T04:58:46.554Z,10.27
2018-04-13T05:01:14.026Z,8.33
2018-04-13T05:03:41.529Z,11.30
2018-04-13T05:06:09.008Z,10.40
2018-04-13T05:08:36.509Z,7.63
2018-04-13T05:11:04.074Z,8.80
2018-04-13T05:13:31.646Z,9.67
2018-04-13T05:15:59.207Z,9.57
2018-04-13T05:18:26.758Z,8.83
2018-04-13T05:20:54.294Z,8.40
2018-04-13T05:23:21.823Z,9.87
2018-04-13T05:25:49.389Z,10.00
2018-04-13T05:28:16.930Z,9.67
2018-04-13T05:30:44.400Z,8.90
2018-04-13T05:33:11.916Z,10.00
2018-04-13T05:35:39.409Z,11.30
2018-04-13T05:38:06.945Z,11.27
2018-04-13T05:40:34.439Z,10.20
2018-04-13T05:43:01.933Z,9.50
2018-04-13T05:45:29.421Z,9.00
2018-04-13T05:47:56.964Z,11.63
2018-04-13T05:50:24.514Z,10.07
2018-04-13T05:52:52.026Z,10.30
2018-04-13T05:55:19.568Z,16.23
2018-04-13T05:57:47.106Z,12.70
2018-04-13T06:00:14.667Z,12.80
2018-04-13T06:02:42.221Z,11.67
2018-04-13T06:05:09.769Z,9.03
2018-04-13T06:07:37.353Z,9.37
2018-04-13T06:10:04.890Z,7.63
2018-04-13T06:12:32.430Z,9.80
2018-04-13T06:14:59.982Z,7.83
2018-04-13T06:17:27.515Z,9.50
2018-04-13T06:19:55.087Z,8.10
2018-04-13T06:22:22.621Z,6.70
2018-04-13T06:24:50.097Z,8.57
2018-04-13T06:27:17.669Z,7.57
2018-04-13T06:29:45.941Z,8.50
2018-04-13T06:32:13.465Z,7.40
2018-04-13T06:34:40.951Z,7.30
2018-04-13T06:37:08.479Z,7.30
2018-04-13T06:39:36.187Z,8.33
2018-04-13T06:42:03.718Z,8.30
2018-04-13T06:44:31.255Z,6.17
2018-04-13T06:46:58.831Z,6.40
2018-04-13T06:49:26.363Z,7.37
2018-04-13T06:51:53.896Z,8.10
2018-04-13T06:54:21.457Z,7.50
2018-04-13T06:56:48.992Z,7.77
2018-04-13T06:59:16.559Z,15.63
2018-04-13T07:01:44.048Z,7.60
2018-04-13T07:04:11.542Z,6.80
2018-04-13T07:06:39.127Z,6.10
2018-04-13T07:09:06.664Z,9.07
2018-04-13T07:11:34.196Z,6.90
2018-04-13T07:14:01.790Z,6.87
2018-04-13T07:16:29.314Z,6.27
2018-04-13T07:18:56.805Z,7.33
2018-04-13T07:21:24.307Z,5.80
2018-04-13T07:23:51.795Z,4.90
2018-04-13T07:26:19.312Z,5.73
2018-04-13T07:28:46.857Z,5.37
2018-04-13T07:31:14.331Z,4.10
2018-04-13T07:33:42.020Z,3.83
2018-04-13T07:36:09.655Z,5.60
2018-04-13T07:38:37.799Z,5.70
2018-04-13T07:41:05.040Z,4.53
2018-04-13T07:43:32.880Z,5.20
2018-04-13T07:46:00.270Z,4.17
2018-04-13T07:48:27.763Z,4.33
2018-04-13T07:50:55.305Z,3.60
2018-04-13T07:53:22.838Z,4.20
2018-04-13T07:55:50.419Z,3.33
2018-04-13T07:58:17.956Z,3.87
2018-04-13T08:00:46.045Z,3.90
2018-04-13T08:03:13.098Z,4.57
2018-04-13T08:05:40.665Z,3.70
2018-04-13T08:08:08.536Z,3.93
2018-04-13T08:10:36.099Z,3.40
2018-04-13T08:13:03.632Z,3.23
2018-04-13T08:15:31.240Z,3.80
2018-04-13T08:17:58.796Z,2.80
2018-04-13T08:20:26.315Z,3.30
2018-04-13T08:22:53.856Z,2.63
2018-04-13T08:25:21.395Z,2.60
2018-04-13T08:27:48.950Z,2.43
2018-04-13T08:30:16.436Z,2.97
2018-04-13T08:32:43.969Z,2.70
2018-04-13T08:35:11.523Z,3.33
2018-04-13T08:37:39.061Z,2.00
2018-04-13T08:40:06.615Z,1.90
2018-04-13T08:42:34.210Z,2.10
2018-04-13T08:45:02.439Z,1.80
2018-04-13T08:47:30.016Z,1.60
2018-04-13T08:49:57.584Z,1.93
2018-04-13T08:52:25.136Z,1.40
2018-04-13T08:54:52.793Z,1.50
2018-04-13T08:57:20.690Z,2.03
2018-04-13T08:59:48.248Z,1.80
2018-04-13T09:02:15.810Z,1.40
2018-04-13T09:04:43.347Z,1.57
2018-04-13T09:07:10.918Z,1.50
2018-04-13T09:09:38.481Z,1.00
2018-04-13T09:12:06.008Z,1.53
2018-04-13T09:14:40.214Z,1.77
2018-04-13T09:17:07.695Z,1.20
2018-04-13T09:19:35.235Z,1.10
2018-04-13T09:22:02.780Z,1.20
2018-04-13T09:24:30.343Z,1.30
2018-04-13T09:26:57.909Z,1.47
2018-04-13T09:29:25.481Z,1.13
2018-04-13T09:31:53.040Z,1.10
2018-04-13T09:34:20.586Z,1.33
2018-04-13T09:36:48.128Z,1.00
2018-04-13T09:39:15.677Z,1.47
2018-04-13T09:41:43.229Z,0.90
2018-04-13T09:44:10.805Z,1.30
2018-04-13T09:46:38.340Z,1.07
2018-04-13T09:49:05.880Z,1.20
2018-04-13T09:51:33.432Z,1.80
2018-04-13T09:54:00.973Z,1.47
2018-04-13T09:56:28.533Z,1.10
2018-04-13T09:58:56.088Z,0.93
2018-04-13T10:01:23.658Z,1.07
2018-04-13T10:06:57.958Z,1.50
2018-04-13T10:09:25.475Z,0.90
2018-04-13T10:11:53.057Z,1.00
2018-04-13T10:14:20.582Z,0.90
2018-04-13T10:16:48.118Z,0.90
2018-04-13T10:19:15.631Z,0.80
2018-04-13T10:21:43.226Z,0.80
2018-04-13T10:24:10.797Z,0.90
2018-04-13T10:26:38.363Z,1.00
2018-04-13T10:29:12.687Z,0.97
2018-04-13T10:31:45.719Z,1.00
2018-04-13T10:34:13.263Z,0.80
2018-04-13T10:36:40.800Z,1.00
2018-04-13T10:39:08.409Z,0.80
2018-04-13T10:41:35.945Z,0.93
2018-04-13T10:44:03.475Z,1.07
2018-04-13T10:46:31.045Z,0.90
2018-04-13T10:48:58.591Z,1.10
2018-04-13T10:51:26.189Z,1.10
2018-04-13T10:53:53.744Z,0.77
2018-04-13T10:56:21.651Z,1.00
2018-04-13T10:58:49.491Z,0.70
2018-04-13T11:01:17.243Z,1.10
2018-04-13T11:03:45.233Z,0.80
2018-04-13T11:06:12.817Z,1.00
2018-04-13T11:08:41.801Z,1.00
2018-04-13T11:11:09.848Z,0.87
2018-04-13T11:13:37.373Z,0.90
2018-04-13T11:16:13.040Z,0.80
2018-04-13T11:18:45.779Z,1.20
2018-04-13T11:21:13.328Z,0.90
2018-04-13T11:23:40.895Z,1.10
2018-04-13T11:26:13.858Z,0.90
2018-04-13T11:28:41.401Z,0.90
2018-04-13T11:31:09.666Z,0.90
2018-04-13T11:33:37.868Z,0.80
2018-04-13T11:36:05.680Z,0.80
2018-04-13T11:38:34.143Z,0.70
2018-04-13T11:41:01.713Z,0.70
2018-04-13T11:43:30.526Z,0.90
2018-04-13T11:45:58.637Z,0.60
2018-04-13T11:48:26.247Z,0.70
2018-04-13T11:50:55.739Z,0.60
2018-04-13T11:53:24.239Z,0.60
2018-04-13T11:55:55.450Z,1.20
2018-04-13T11:58:23.761Z,1.17
2018-04-13T12:00:52.502Z,1.10
2018-04-13T12:03:23.043Z,1.10
2018-04-13T12:05:56.078Z,1.50
2018-04-13T12:11:27.655Z,1.70
2018-04-13T12:13:55.335Z,1.37
2018-04-13T12:16:22.936Z,1.30
2018-04-13T12:18:56.055Z,1.77
2018-04-13T12:21:28.043Z,1.50
2018-04-13T12:23:59.052Z,1.70
2018-04-13T12:26:28.493Z,1.00
2018-04-13T12:28:56.677Z,1.57
2018-04-13T12:31:24.297Z,1.20
2018-04-13T12:33:51.900Z,0.80
2018-04-13T12:36:19.499Z,1.07
2018-04-13T12:38:47.120Z,1.27
2018-04-13T12:41:14.671Z,0.80
2018-04-13T12:43:42.333Z,1.23
2018-04-13T12:46:10.010Z,1.20
2018-04-13T12:48:37.644Z,0.80
2018-04-13T12:51:05.272Z,0.70
2018-04-13T12:53:32.954Z,1.60
2018-04-13T12:56:00.530Z,0.80
2018-04-13T12:58:28.168Z,1.33
2018-04-13T13:00:55.867Z,1.00
2018-04-13T13:03:23.468Z,0.90
2018-04-13T13:05:51.114Z,0.77
2018-04-13T13:08:18.724Z,2.13
2018-04-13T13:10:46.316Z,1.07
2018-04-13T13:13:13.916Z,0.90
2018-04-13T13:15:41.549Z,1.10
2018-04-13T13:18:09.246Z,1.30
2018-04-13T13:20:37.001Z,1.07
2018-04-13T13:23:04.578Z,0.80
2018-04-13T13:25:32.142Z,1.00
2018-04-13T13:28:00.033Z,0.80
2018-04-13T13:30:27.765Z,1.00
2018-04-13T13:32:55.360Z,0.70
2018-04-13T13:35:23.071Z,0.90
2018-04-13T13:37:50.676Z,0.60
2018-04-13T13:40:18.472Z,1.00
2018-04-13T13:42:51.197Z,0.90
2018-04-13T13:45:19.086Z,0.70
2018-04-13T13:47:46.679Z,0.93
2018-04-13T13:50:14.232Z,0.87
2018-04-13T13:52:41.811Z,0.90
2018-04-13T13:55:09.398Z,1.20
2018-04-13T13:57:36.965Z,0.80
2018-04-13T14:00:05.167Z,0.80
2018-04-13T14:02:32.716Z,0.80
2018-04-13T14:05:00.270Z,0.70
2018-04-13T14:07:27.856Z,0.90
2018-04-13T14:12:58.531Z,1.10
2018-04-13T14:15:26.078Z,1.00
2018-04-13T14:17:53.633Z,1.20
2018-04-13T14:20:21.216Z,0.97
2018-04-13T14:22:48.811Z,0.80
2018-04-13T14:25:16.377Z,1.00
2018-04-13T14:27:43.944Z,1.07
2018-04-13T14:30:11.503Z,1.13
2018-04-13T14:32:39.056Z,0.77
2018-04-13T14:35:06.617Z,0.80
2018-04-13T14:37:34.206Z,1.13
2018-04-13T14:40:01.751Z,0.80
2018-04-13T14:42:29.346Z,0.87
2018-04-13T14:44:56.960Z,0.83
2018-04-13T14:47:24.530Z,0.90
2018-04-13T14:49:52.148Z,0.90
2018-04-13T14:52:19.718Z,0.90
2018-04-13T14:54:47.272Z,2.03
2018-04-13T14:57:14.829Z,0.90
2018-04-13T14:59:42.379Z,0.83
2018-04-13T15:02:09.921Z,0.97
2018-04-13T15:04:37.490Z,1.13
2018-04-13T15:07:05.093Z,1.40
2018-04-13T15:09:32.663Z,0.87
2018-04-13T15:12:00.229Z,2.00
2018-04-13T15:14:27.800Z,1.40
2018-04-13T15:16:55.448Z,1.07
2018-04-13T15:19:23.008Z,1.23
2018-04-13T15:21:50.580Z,2.40
2018-04-13T15:24:18.192Z,2.30
2018-04-13T15:26:45.752Z,2.57
2018-04-13T15:29:13.342Z,1.10
2018-04-13T15:31:40.925Z,1.20
2018-04-13T15:34:08.520Z,1.10
2018-04-13T15:36:36.058Z,3.53
2018-04-13T15:39:03.644Z,2.27
2018-04-13T15:41:31.279Z,0.80
2018-04-13T15:43:58.868Z,11.87
2018-04-13T15:46:26.356Z,32.50
2018-04-13T15:48:53.832Z,5.37
2018-04-13T15:51:21.686Z,2.30
2018-04-13T15:53:49.243Z,1.50
2018-04-13T15:56:25.025Z,1.30
2018-04-13T15:59:09.233Z,1.50
2018-04-13T16:01:45.375Z,3.23
2018-04-13T16:04:14.937Z,1.00
2018-04-13T16:06:45.476Z,1.40
2018-04-13T16:12:19.294Z,1.47
2018-04-13T16:14:48.938Z,1.10
2018-04-13T16:17:20.189Z,0.97
2018-04-13T16:20:14.094Z,1.70
2018-04-13T16:22:49.312Z,1.00
2018-04-13T16:25:23.921Z,2.60
2018-04-13T16:28:02.387Z,1.80
2018-04-13T16:30:35.691Z,3.30
2018-04-13T16:33:06.514Z,6.90
2018-04-13T16:38:20.301Z,5.43
2018-04-13T16:40:53.578Z,11.33
2018-04-13T16:43:24.297Z,1.00
2018-04-13T16:45:52.856Z,1.83
2018-04-13T16:48:26.981Z,11.60
2018-04-13T16:50:58.249Z,1.30
2018-04-13T16:53:35.453Z,3.77
2018-04-13T17:01:52.567Z,1.60
2018-04-13T17:04:26.003Z,1.73
2018-04-13T17:06:58.952Z,1.60
2018-04-13T17:09:35.208Z,1.37
2018-04-13T17:24:25.526Z,5.37
